John M Carras — SVBK5 — position and weather

sailwx.info

Track history (hours):
 
Tides and Currents Weather Stations Pressure Air Temp Water Temp Dewpoint Dewpoint Depression Visibility Wind Speed Wind Dir Waves Ship Positions

John M Carras

Last reported at 2016-Aug-18 11:17 UTC. Time now 2016-Aug-28 06:57 UTC.
Position N 30°33' E 123°03'.
Warning: this ship's position is 9 days out of date.

Length 229 m; draft 7.2 m.

Type: Ship. MMSI: 241150000.

Date/timePositionNaut miles runAvg speedWind from/ knotsBaromVisibWave heightAir tempDewpointWater temp
2016-Aug-18 11:17N 30°33' E 123°03'1413.0
2016-Aug-18 10:11N 30°46' E 122°57'  
2016-Aug-15 18:20N 31°16' E 121°52'1113.8
2016-Aug-15 17:33N 31°20' E 121°40'1111.3
2016-Aug-15 16:33N 31°26' E 121°29'9 8.8
2016-Aug-15 15:33N 31°32' E 121°21'  
2016-Aug-11 15:32N 31°56' E 120°52'1010.1
2016-Aug-11 14:33N 31°47' E 120°57'1010.0
2016-Aug-11 13:34N 31°43' E 121°08'1111.1
2016-Aug-11 12:33N 31°35' E 121°18'1211.9
2016-Aug-11 11:34N 31°28' E 121°28'8 8.2
2016-Aug-11 10:33N 31°23' E 121°36'1110.6
2016-Aug-11 09:32N 31°18' E 121°47'  
2016-Aug-08 22:21N 24°06' E 119°05'1212.5
2016-Aug-08 21:25N 24°01' E 118°53'1112.8
2016-Aug-08 20:33N 23°54' E 118°45'1313.2
2016-Aug-08 19:33N 23°45' E 118°33'  
Track history (hours):
 
Tides and Currents Weather Stations Pressure Air Temp Water Temp Dewpoint Dewpoint Depression Visibility Wind Speed Wind Dir Waves Ship Positions

John M Carras

Last reported at 2016-Aug-18 11:17 UTC. Time now 2016-Aug-28 06:57 UTC.
Position N 30°33' E 123°03'.
Warning: this ship's position is 9 days out of date.

Length 229 m; draft 7.2 m.

Type: Ship. MMSI: 241150000.

Date/timePositionNaut miles runAvg speedWind from/ knotsBaromVisibWave heightAir tempDewpointWater temp
2016-Aug-18 11:17N 30°33' E 123°03'1413.0
2016-Aug-18 10:11N 30°46' E 122°57'  
2016-Aug-15 18:20N 31°16' E 121°52'1113.8
2016-Aug-15 17:33N 31°20' E 121°40'1111.3
2016-Aug-15 16:33N 31°26' E 121°29'9 8.8
2016-Aug-15 15:33N 31°32' E 121°21'  
2016-Aug-11 15:32N 31°56' E 120°52'1010.1
2016-Aug-11 14:33N 31°47' E 120°57'1010.0
2016-Aug-11 13:34N 31°43' E 121°08'1111.1
2016-Aug-11 12:33N 31°35' E 121°18'1211.9
2016-Aug-11 11:34N 31°28' E 121°28'8 8.2
2016-Aug-11 10:33N 31°23' E 121°36'1110.6
2016-Aug-11 09:32N 31°18' E 121°47'  
2016-Aug-08 22:21N 24°06' E 119°05'1212.5
2016-Aug-08 21:25N 24°01' E 118°53'1112.8
2016-Aug-08 20:33N 23°54' E 118°45'1313.2
2016-Aug-08 19:33N 23°45' E 118°33'  

Dump ship's entire track history